sensor_id;sensor_type;location;lat;lon;timestamp;P1;durP1;ratioP1;P2;durP2;ratioP2
17169;SDS011;8700;48.222;16.342;2023-08-12T00:00:40;5.75;;;5.35;;
17169;SDS011;8700;48.222;16.342;2023-08-12T00:04:01;6.15;;;5.72;;
17169;SDS011;8700;48.222;16.342;2023-08-12T00:07:24;7.45;;;6.07;;
17169;SDS011;8700;48.222;16.342;2023-08-12T00:10:45;6.60;;;6.07;;
17169;SDS011;8700;48.222;16.342;2023-08-12T00:14:06;6.47;;;5.97;;
17169;SDS011;8700;48.222;16.342;2023-08-12T00:17:27;6.45;;;5.90;;
17169;SDS011;8700;48.222;16.342;2023-08-12T00:20:49;5.47;;;5.00;;
17169;SDS011;8700;48.222;16.342;2023-08-12T00:24:11;6.32;;;5.82;;
17169;SDS011;8700;48.222;16.342;2023-08-12T00:27:33;5.53;;;5.13;;
17169;SDS011;8700;48.222;16.342;2023-08-12T00:30:54;9.20;;;8.43;;
17169;SDS011;8700;48.222;16.342;2023-08-12T00:34:16;6.18;;;5.78;;
17169;SDS011;8700;48.222;16.342;2023-08-12T00:37:37;6.60;;;6.00;;
17169;SDS011;8700;48.222;16.342;2023-08-12T00:41:00;5.80;;;5.47;;
17169;SDS011;8700;48.222;16.342;2023-08-12T00:44:21;5.80;;;5.40;;
17169;SDS011;8700;48.222;16.342;2023-08-12T00:47:43;6.32;;;5.90;;
17169;SDS011;8700;48.222;16.342;2023-08-12T00:51:04;5.32;;;5.00;;
17169;SDS011;8700;48.222;16.342;2023-08-12T00:54:25;5.57;;;5.18;;
17169;SDS011;8700;48.222;16.342;2023-08-12T00:57:48;5.95;;;5.50;;
17169;SDS011;8700;48.222;16.342;2023-08-12T01:01:10;6.18;;;5.78;;
17169;SDS011;8700;48.222;16.342;2023-08-12T01:04:32;5.25;;;4.85;;
17169;SDS011;8700;48.222;16.342;2023-08-12T01:07:54;7.22;;;6.20;;
17169;SDS011;8700;48.222;16.342;2023-08-12T01:11:16;5.97;;;5.53;;
17169;SDS011;8700;48.222;16.342;2023-08-12T01:14:48;5.75;;;5.35;;
17169;SDS011;8700;48.222;16.342;2023-08-12T01:18:16;7.43;;;6.82;;
17169;SDS011;8700;48.222;16.342;2023-08-12T01:21:40;7.13;;;6.63;;
17169;SDS011;8700;48.222;16.342;2023-08-12T01:25:05;7.03;;;6.38;;
17169;SDS011;8700;48.222;16.342;2023-08-12T01:28:27;6.85;;;6.25;;
17169;SDS011;8700;48.222;16.342;2023-08-12T01:31:50;6.90;;;6.38;;
17169;SDS011;8700;48.222;16.342;2023-08-12T01:35:16;6.93;;;6.43;;
17169;SDS011;8700;48.222;16.342;2023-08-12T01:38:41;7.47;;;6.78;;
17169;SDS011;8700;48.222;16.342;2023-08-12T01:42:05;7.80;;;7.13;;
17169;SDS011;8700;48.222;16.342;2023-08-12T01:45:26;7.80;;;7.30;;
17169;SDS011;8700;48.222;16.342;2023-08-12T01:48:48;7.88;;;7.20;;
17169;SDS011;8700;48.222;16.342;2023-08-12T01:52:09;8.48;;;7.55;;
17169;SDS011;8700;48.222;16.342;2023-08-12T01:55:30;8.45;;;7.85;;
17169;SDS011;8700;48.222;16.342;2023-08-12T01:58:53;8.38;;;7.65;;
17169;SDS011;8700;48.222;16.342;2023-08-12T02:02:14;8.90;;;8.20;;
17169;SDS011;8700;48.222;16.342;2023-08-12T02:05:35;8.20;;;7.50;;
17169;SDS011;8700;48.222;16.342;2023-08-12T02:08:57;7.72;;;7.00;;
17169;SDS011;8700;48.222;16.342;2023-08-12T02:12:18;9.55;;;8.82;;
17169;SDS011;8700;48.222;16.342;2023-08-12T02:15:40;8.63;;;7.82;;
17169;SDS011;8700;48.222;16.342;2023-08-12T02:19:02;8.60;;;7.80;;
17169;SDS011;8700;48.222;16.342;2023-08-12T02:22:23;9.00;;;8.27;;
17169;SDS011;8700;48.222;16.342;2023-08-12T02:25:44;7.90;;;7.38;;
17169;SDS011;8700;48.222;16.342;2023-08-12T02:29:06;7.63;;;6.95;;
17169;SDS011;8700;48.222;16.342;2023-08-12T02:32:29;7.93;;;7.07;;
17169;SDS011;8700;48.222;16.342;2023-08-12T02:35:52;7.20;;;6.70;;
17169;SDS011;8700;48.222;16.342;2023-08-12T02:39:14;7.68;;;7.18;;
17169;SDS011;8700;48.222;16.342;2023-08-12T02:42:35;7.45;;;6.95;;
17169;SDS011;8700;48.222;16.342;2023-08-12T02:45:56;8.38;;;7.78;;
17169;SDS011;8700;48.222;16.342;2023-08-12T02:49:18;8.10;;;7.47;;
17169;SDS011;8700;48.222;16.342;2023-08-12T02:52:40;8.18;;;7.50;;
17169;SDS011;8700;48.222;16.342;2023-08-12T02:56:01;8.50;;;7.72;;
17169;SDS011;8700;48.222;16.342;2023-08-12T02:59:22;8.57;;;7.80;;
17169;SDS011;8700;48.222;16.342;2023-08-12T03:02:44;8.25;;;7.47;;
17169;SDS011;8700;48.222;16.342;2023-08-12T03:06:07;6.88;;;6.28;;
17169;SDS011;8700;48.222;16.342;2023-08-12T03:09:28;9.70;;;9.00;;
17169;SDS011;8700;48.222;16.342;2023-08-12T03:12:49;7.68;;;7.07;;
17169;SDS011;8700;48.222;16.342;2023-08-12T03:16:11;7.88;;;7.22;;
17169;SDS011;8700;48.222;16.342;2023-08-12T03:19:33;7.65;;;7.05;;
17169;SDS011;8700;48.222;16.342;2023-08-12T03:22:55;7.97;;;7.38;;
17169;SDS011;8700;48.222;16.342;2023-08-12T03:26:16;8.02;;;7.43;;
17169;SDS011;8700;48.222;16.342;2023-08-12T03:29:38;8.77;;;7.95;;
17169;SDS011;8700;48.222;16.342;2023-08-12T03:32:59;9.25;;;8.45;;
17169;SDS011;8700;48.222;16.342;2023-08-12T03:36:20;9.18;;;8.57;;
17169;SDS011;8700;48.222;16.342;2023-08-12T03:39:42;9.13;;;8.43;;
17169;SDS011;8700;48.222;16.342;2023-08-12T03:43:03;8.52;;;7.93;;
17169;SDS011;8700;48.222;16.342;2023-08-12T03:46:24;8.60;;;7.40;;
17169;SDS011;8700;48.222;16.342;2023-08-12T03:49:46;8.75;;;8.13;;
17169;SDS011;8700;48.222;16.342;2023-08-12T03:53:07;12.38;;;11.07;;
17169;SDS011;8700;48.222;16.342;2023-08-12T03:56:30;9.10;;;8.20;;
17169;SDS011;8700;48.222;16.342;2023-08-12T03:59:51;9.20;;;8.60;;
17169;SDS011;8700;48.222;16.342;2023-08-12T04:03:13;8.73;;;8.02;;
17169;SDS011;8700;48.222;16.342;2023-08-12T04:06:34;9.07;;;8.30;;
17169;SDS011;8700;48.222;16.342;2023-08-12T04:09:55;9.18;;;8.38;;
17169;SDS011;8700;48.222;16.342;2023-08-12T04:13:18;9.52;;;8.38;;
17169;SDS011;8700;48.222;16.342;2023-08-12T04:16:39;8.77;;;7.93;;
17169;SDS011;8700;48.222;16.342;2023-08-12T04:20:00;9.00;;;8.13;;
17169;SDS011;8700;48.222;16.342;2023-08-12T04:23:25;8.65;;;8.05;;
17169;SDS011;8700;48.222;16.342;2023-08-12T04:26:46;8.10;;;7.40;;
17169;SDS011;8700;48.222;16.342;2023-08-12T04:30:09;8.77;;;8.18;;
17169;SDS011;8700;48.222;16.342;2023-08-12T04:33:30;9.90;;;8.50;;
17169;SDS011;8700;48.222;16.342;2023-08-12T04:36:52;8.60;;;7.80;;
17169;SDS011;8700;48.222;16.342;2023-08-12T04:40:13;8.77;;;8.07;;
17169;SDS011;8700;48.222;16.342;2023-08-12T04:43:34;9.07;;;8.23;;
17169;SDS011;8700;48.222;16.342;2023-08-12T04:46:57;8.05;;;7.45;;
17169;SDS011;8700;48.222;16.342;2023-08-12T04:50:18;8.70;;;8.00;;
17169;SDS011;8700;48.222;16.342;2023-08-12T04:53:39;9.70;;;8.98;;
17169;SDS011;8700;48.222;16.342;2023-08-12T04:57:01;7.85;;;7.25;;
17169;SDS011;8700;48.222;16.342;2023-08-12T05:00:22;9.45;;;8.75;;
17169;SDS011;8700;48.222;16.342;2023-08-12T05:03:44;9.65;;;8.75;;
17169;SDS011;8700;48.222;16.342;2023-08-12T05:07:05;8.65;;;7.95;;
17169;SDS011;8700;48.222;16.342;2023-08-12T05:10:26;9.98;;;9.27;;
17169;SDS011;8700;48.222;16.342;2023-08-12T05:13:48;11.95;;;10.93;;
17169;SDS011;8700;48.222;16.342;2023-08-12T05:17:09;11.00;;;10.20;;
17169;SDS011;8700;48.222;16.342;2023-08-12T05:20:32;10.00;;;9.25;;
17169;SDS011;8700;48.222;16.342;2023-08-12T05:23:53;10.48;;;9.63;;
17169;SDS011;8700;48.222;16.342;2023-08-12T05:27:14;10.48;;;9.65;;
17169;SDS011;8700;48.222;16.342;2023-08-12T05:30:35;10.55;;;9.75;;
17169;SDS011;8700;48.222;16.342;2023-08-12T05:33:57;10.57;;;9.77;;
17169;SDS011;8700;48.222;16.342;2023-08-12T05:37:19;11.77;;;10.82;;
17169;SDS011;8700;48.222;16.342;2023-08-12T05:40:40;12.13;;;10.93;;
17169;SDS011;8700;48.222;16.342;2023-08-12T05:44:02;11.57;;;10.75;;
17169;SDS011;8700;48.222;16.342;2023-08-12T05:47:23;11.65;;;10.68;;
17169;SDS011;8700;48.222;16.342;2023-08-12T05:50:44;11.68;;;10.82;;
17169;SDS011;8700;48.222;16.342;2023-08-12T05:54:07;12.57;;;11.45;;
17169;SDS011;8700;48.222;16.342;2023-08-12T05:57:28;11.82;;;10.90;;
17169;SDS011;8700;48.222;16.342;2023-08-12T06:00:49;12.18;;;11.27;;
17169;SDS011;8700;48.222;16.342;2023-08-12T06:04:10;12.48;;;11.32;;
17169;SDS011;8700;48.222;16.342;2023-08-12T06:07:31;12.07;;;11.07;;
17169;SDS011;8700;48.222;16.342;2023-08-12T06:10:54;13.15;;;11.93;;
17169;SDS011;8700;48.222;16.342;2023-08-12T06:14:15;11.98;;;10.95;;
17169;SDS011;8700;48.222;16.342;2023-08-12T06:17:36;12.30;;;11.25;;
17169;SDS011;8700;48.222;16.342;2023-08-12T06:20:57;12.23;;;11.32;;
17169;SDS011;8700;48.222;16.342;2023-08-12T06:24:18;11.63;;;10.63;;
17169;SDS011;8700;48.222;16.342;2023-08-12T06:27:41;11.35;;;10.23;;
17169;SDS011;8700;48.222;16.342;2023-08-12T06:31:02;14.48;;;10.98;;
17169;SDS011;8700;48.222;16.342;2023-08-12T06:34:23;11.23;;;10.35;;
17169;SDS011;8700;48.222;16.342;2023-08-12T06:37:44;13.18;;;10.73;;
17169;SDS011;8700;48.222;16.342;2023-08-12T06:41:05;15.43;;;11.13;;
17169;SDS011;8700;48.222;16.342;2023-08-12T06:44:28;10.88;;;9.82;;
17169;SDS011;8700;48.222;16.342;2023-08-12T06:47:49;11.82;;;10.85;;
17169;SDS011;8700;48.222;16.342;2023-08-12T06:51:10;12.68;;;11.68;;
17169;SDS011;8700;48.222;16.342;2023-08-12T06:54:32;15.05;;;10.90;;
17169;SDS011;8700;48.222;16.342;2023-08-12T06:57:53;11.90;;;10.85;;
17169;SDS011;8700;48.222;16.342;2023-08-12T07:01:15;13.20;;;11.98;;
17169;SDS011;8700;48.222;16.342;2023-08-12T07:04:36;12.65;;;11.60;;
17169;SDS011;8700;48.222;16.342;2023-08-12T07:07:57;14.60;;;13.25;;
17169;SDS011;8700;48.222;16.342;2023-08-12T07:11:19;14.57;;;13.35;;
17169;SDS011;8700;48.222;16.342;2023-08-12T07:14:40;12.95;;;11.65;;
17169;SDS011;8700;48.222;16.342;2023-08-12T07:18:03;20.50;;;16.10;;
17169;SDS011;8700;48.222;16.342;2023-08-12T07:21:24;14.05;;;12.63;;
17169;SDS011;8700;48.222;16.342;2023-08-12T07:24:45;13.25;;;11.95;;
17169;SDS011;8700;48.222;16.342;2023-08-12T07:28:07;16.77;;;11.65;;
17169;SDS011;8700;48.222;16.342;2023-08-12T07:31:28;18.65;;;12.88;;
17169;SDS011;8700;48.222;16.342;2023-08-12T07:34:50;13.55;;;12.30;;
17169;SDS011;8700;48.222;16.342;2023-08-12T07:38:11;19.90;;;15.00;;
17169;SDS011;8700;48.222;16.342;2023-08-12T07:41:33;12.93;;;11.98;;
17169;SDS011;8700;48.222;16.342;2023-08-12T07:44:54;14.65;;;13.07;;
17169;SDS011;8700;48.222;16.342;2023-08-12T07:48:15;14.15;;;12.95;;
17169;SDS011;8700;48.222;16.342;2023-08-12T07:51:37;12.52;;;11.63;;
17169;SDS011;8700;48.222;16.342;2023-08-12T07:54:59;12.40;;;11.40;;
17169;SDS011;8700;48.222;16.342;2023-08-12T07:58:20;11.55;;;10.57;;
17169;SDS011;8700;48.222;16.342;2023-08-12T08:01:41;9.95;;;9.30;;
17169;SDS011;8700;48.222;16.342;2023-08-12T08:05:02;9.27;;;8.48;;
17169;SDS011;8700;48.222;16.342;2023-08-12T08:08:25;9.07;;;8.32;;
17169;SDS011;8700;48.222;16.342;2023-08-12T08:11:46;9.55;;;8.75;;
17169;SDS011;8700;48.222;16.342;2023-08-12T08:15:08;6.50;;;6.03;;
17169;SDS011;8700;48.222;16.342;2023-08-12T08:18:29;6.70;;;6.30;;
17169;SDS011;8700;48.222;16.342;2023-08-12T08:21:50;6.22;;;5.63;;
17169;SDS011;8700;48.222;16.342;2023-08-12T08:25:13;5.97;;;5.43;;
17169;SDS011;8700;48.222;16.342;2023-08-12T08:28:34;5.22;;;4.55;;
17169;SDS011;8700;48.222;16.342;2023-08-12T08:31:55;5.15;;;4.75;;
17169;SDS011;8700;48.222;16.342;2023-08-12T08:35:16;5.25;;;4.88;;
17169;SDS011;8700;48.222;16.342;2023-08-12T08:38:38;4.85;;;4.63;;
17169;SDS011;8700;48.222;16.342;2023-08-12T08:42:00;4.50;;;4.30;;
17169;SDS011;8700;48.222;16.342;2023-08-12T08:45:24;4.68;;;4.30;;
17169;SDS011;8700;48.222;16.342;2023-08-12T08:48:46;7.28;;;4.70;;
17169;SDS011;8700;48.222;16.342;2023-08-12T08:52:08;4.75;;;4.45;;
17169;SDS011;8700;48.222;16.342;2023-08-12T08:55:30;4.65;;;4.35;;
17169;SDS011;8700;48.222;16.342;2023-08-12T08:58:53;5.57;;;5.13;;
17169;SDS011;8700;48.222;16.342;2023-08-12T09:02:15;4.90;;;4.57;;
17169;SDS011;8700;48.222;16.342;2023-08-12T09:05:37;4.50;;;4.20;;
17169;SDS011;8700;48.222;16.342;2023-08-12T09:09:00;4.80;;;4.50;;
17169;SDS011;8700;48.222;16.342;2023-08-12T09:12:22;5.05;;;4.72;;
17169;SDS011;8700;48.222;16.342;2023-08-12T09:15:46;7.15;;;5.45;;
17169;SDS011;8700;48.222;16.342;2023-08-12T09:19:07;6.80;;;6.30;;
17169;SDS011;8700;48.222;16.342;2023-08-12T09:22:29;6.57;;;5.97;;
17169;SDS011;8700;48.222;16.342;2023-08-12T09:25:50;7.72;;;6.15;;
17169;SDS011;8700;48.222;16.342;2023-08-12T09:29:11;8.98;;;6.55;;
17169;SDS011;8700;48.222;16.342;2023-08-12T09:32:33;8.30;;;6.28;;
17169;SDS011;8700;48.222;16.342;2023-08-12T09:35:55;7.43;;;6.57;;
17169;SDS011;8700;48.222;16.342;2023-08-12T09:39:16;7.10;;;6.60;;
17169;SDS011;8700;48.222;16.342;2023-08-12T09:42:43;6.18;;;5.65;;
17169;SDS011;8700;48.222;16.342;2023-08-12T09:46:05;6.47;;;5.97;;
17169;SDS011;8700;48.222;16.342;2023-08-12T09:49:28;6.05;;;5.55;;
17169;SDS011;8700;48.222;16.342;2023-08-12T09:52:49;7.20;;;5.40;;
17169;SDS011;8700;48.222;16.342;2023-08-12T09:56:11;5.53;;;5.13;;
17169;SDS011;8700;48.222;16.342;2023-08-12T09:59:34;8.23;;;5.65;;
17169;SDS011;8700;48.222;16.342;2023-08-12T10:02:56;5.45;;;5.05;;
17169;SDS011;8700;48.222;16.342;2023-08-12T10:06:22;5.40;;;4.30;;
17169;SDS011;8700;48.222;16.342;2023-08-12T10:09:44;5.43;;;5.03;;
17169;SDS011;8700;48.222;16.342;2023-08-12T10:13:05;4.45;;;4.20;;
17169;SDS011;8700;48.222;16.342;2023-08-12T10:16:27;3.88;;;3.58;;
17169;SDS011;8700;48.222;16.342;2023-08-12T10:19:50;5.97;;;3.80;;
17169;SDS011;8700;48.222;16.342;2023-08-12T10:23:17;4.22;;;3.92;;
17169;SDS011;8700;48.222;16.342;2023-08-12T10:26:38;3.97;;;3.78;;
17169;SDS011;8700;48.222;16.342;2023-08-12T10:30:02;3.83;;;3.53;;
17169;SDS011;8700;48.222;16.342;2023-08-12T10:33:23;3.67;;;3.47;;
17169;SDS011;8700;48.222;16.342;2023-08-12T10:36:45;4.60;;;4.28;;
17169;SDS011;8700;48.222;16.342;2023-08-12T10:40:19;4.00;;;3.42;;
17169;SDS011;8700;48.222;16.342;2023-08-12T10:43:48;4.28;;;3.85;;
17169;SDS011;8700;48.222;16.342;2023-08-12T10:47:10;3.30;;;3.10;;
17169;SDS011;8700;48.222;16.342;2023-08-12T10:50:31;3.83;;;3.53;;
17169;SDS011;8700;48.222;16.342;2023-08-12T10:53:52;3.10;;;2.90;;
17169;SDS011;8700;48.222;16.342;2023-08-12T10:57:37;4.97;;;3.53;;
17169;SDS011;8700;48.222;16.342;2023-08-12T11:00:58;3.55;;;3.35;;
17169;SDS011;8700;48.222;16.342;2023-08-12T11:04:20;3.60;;;3.40;;
17169;SDS011;8700;48.222;16.342;2023-08-12T11:07:41;4.07;;;3.70;;
17169;SDS011;8700;48.222;16.342;2023-08-12T11:11:03;3.47;;;3.28;;
17169;SDS011;8700;48.222;16.342;2023-08-12T11:14:48;3.70;;;3.40;;
17169;SDS011;8700;48.222;16.342;2023-08-12T11:18:10;3.88;;;3.58;;
17169;SDS011;8700;48.222;16.342;2023-08-12T11:21:33;3.30;;;3.10;;
17169;SDS011;8700;48.222;16.342;2023-08-12T11:24:56;3.20;;;3.00;;
17169;SDS011;8700;48.222;16.342;2023-08-12T11:28:17;3.50;;;3.30;;
17169;SDS011;8700;48.222;16.342;2023-08-12T11:31:40;3.50;;;3.30;;
17169;SDS011;8700;48.222;16.342;2023-08-12T11:35:02;3.20;;;2.92;;
17169;SDS011;8700;48.222;16.342;2023-08-12T11:38:25;3.13;;;2.92;;
17169;SDS011;8700;48.222;16.342;2023-08-12T11:41:46;3.60;;;3.40;;
17169;SDS011;8700;48.222;16.342;2023-08-12T11:45:08;3.10;;;2.90;;
17169;SDS011;8700;48.222;16.342;2023-08-12T11:48:37;3.15;;;2.95;;
17169;SDS011;8700;48.222;16.342;2023-08-12T11:51:58;3.28;;;3.08;;
17169;SDS011;8700;48.222;16.342;2023-08-12T11:55:20;3.40;;;3.10;;
17169;SDS011;8700;48.222;16.342;2023-08-12T11:58:42;3.22;;;3.03;;
17169;SDS011;8700;48.222;16.342;2023-08-12T12:02:04;4.50;;;4.15;;
17169;SDS011;8700;48.222;16.342;2023-08-12T12:05:27;3.55;;;2.90;;
17169;SDS011;8700;48.222;16.342;2023-08-12T12:08:50;3.42;;;3.22;;
17169;SDS011;8700;48.222;16.342;2023-08-12T12:12:13;3.28;;;3.08;;
17169;SDS011;8700;48.222;16.342;2023-08-12T12:15:37;3.88;;;3.58;;
17169;SDS011;8700;48.222;16.342;2023-08-12T12:18:59;3.53;;;3.30;;
17169;SDS011;8700;48.222;16.342;2023-08-12T12:22:27;3.65;;;3.45;;
17169;SDS011;8700;48.222;16.342;2023-08-12T12:25:49;3.40;;;3.20;;
17169;SDS011;8700;48.222;16.342;2023-08-12T12:29:19;3.30;;;3.10;;
17169;SDS011;8700;48.222;16.342;2023-08-12T12:32:40;3.65;;;3.35;;
17169;SDS011;8700;48.222;16.342;2023-08-12T12:36:02;3.75;;;3.38;;
17169;SDS011;8700;48.222;16.342;2023-08-12T12:39:24;3.08;;;2.70;;
17169;SDS011;8700;48.222;16.342;2023-08-12T12:42:46;3.63;;;2.97;;
17169;SDS011;8700;48.222;16.342;2023-08-12T12:46:07;4.05;;;3.35;;
17169;SDS011;8700;48.222;16.342;2023-08-12T12:49:28;3.92;;;3.63;;
17169;SDS011;8700;48.222;16.342;2023-08-12T12:52:49;4.03;;;3.13;;
17169;SDS011;8700;48.222;16.342;2023-08-12T12:56:12;3.65;;;3.20;;
17169;SDS011;8700;48.222;16.342;2023-08-12T12:59:33;3.08;;;2.88;;
17169;SDS011;8700;48.222;16.342;2023-08-12T13:02:54;3.20;;;3.00;;
17169;SDS011;8700;48.222;16.342;2023-08-12T13:06:15;3.17;;;2.97;;
17169;SDS011;8700;48.222;16.342;2023-08-12T13:09:36;3.38;;;3.17;;
17169;SDS011;8700;48.222;16.342;2023-08-12T13:12:59;3.08;;;2.88;;
17169;SDS011;8700;48.222;16.342;2023-08-12T13:16:20;4.20;;;3.60;;
17169;SDS011;8700;48.222;16.342;2023-08-12T13:19:41;3.38;;;3.15;;
17169;SDS011;8700;48.222;16.342;2023-08-12T13:23:02;2.92;;;2.72;;
17169;SDS011;8700;48.222;16.342;2023-08-12T13:26:24;3.40;;;3.20;;
17169;SDS011;8700;48.222;16.342;2023-08-12T13:29:46;3.30;;;3.10;;
17169;SDS011;8700;48.222;16.342;2023-08-12T13:33:08;3.22;;;3.03;;
17169;SDS011;8700;48.222;16.342;2023-08-12T13:36:29;3.30;;;2.92;;
17169;SDS011;8700;48.222;16.342;2023-08-12T13:39:50;3.00;;;2.80;;
17169;SDS011;8700;48.222;16.342;2023-08-12T13:43:11;3.67;;;3.33;;
17169;SDS011;8700;48.222;16.342;2023-08-12T13:46:34;3.00;;;2.80;;
17169;SDS011;8700;48.222;16.342;2023-08-12T13:49:55;3.28;;;2.97;;
17169;SDS011;8700;48.222;16.342;2023-08-12T13:53:16;3.20;;;2.78;;
17169;SDS011;8700;48.222;16.342;2023-08-12T13:56:37;5.60;;;3.00;;
17169;SDS011;8700;48.222;16.342;2023-08-12T13:59:59;3.17;;;2.97;;
17169;SDS011;8700;48.222;16.342;2023-08-12T14:03:21;3.90;;;2.70;;
17169;SDS011;8700;48.222;16.342;2023-08-12T14:06:43;2.95;;;2.65;;
17169;SDS011;8700;48.222;16.342;2023-08-12T14:10:04;4.38;;;3.08;;
17169;SDS011;8700;48.222;16.342;2023-08-12T14:13:26;3.80;;;3.50;;
17169;SDS011;8700;48.222;16.342;2023-08-12T14:16:47;4.25;;;3.45;;
17169;SDS011;8700;48.222;16.342;2023-08-12T14:20:11;2.80;;;2.60;;
17169;SDS011;8700;48.222;16.342;2023-08-12T14:23:34;3.45;;;3.15;;
17169;SDS011;8700;48.222;16.342;2023-08-12T14:26:55;2.50;;;2.40;;
17169;SDS011;8700;48.222;16.342;2023-08-12T14:30:17;3.63;;;3.20;;
17169;SDS011;8700;48.222;16.342;2023-08-12T14:33:40;3.40;;;3.20;;
17169;SDS011;8700;48.222;16.342;2023-08-12T14:37:04;4.40;;;3.00;;
17169;SDS011;8700;48.222;16.342;2023-08-12T14:40:27;3.28;;;3.08;;
17169;SDS011;8700;48.222;16.342;2023-08-12T14:43:48;3.28;;;2.97;;
17169;SDS011;8700;48.222;16.342;2023-08-12T14:47:09;2.70;;;2.60;;
17169;SDS011;8700;48.222;16.342;2023-08-12T14:50:30;3.75;;;3.50;;
17169;SDS011;8700;48.222;16.342;2023-08-12T14:53:53;3.20;;;3.00;;
17169;SDS011;8700;48.222;16.342;2023-08-12T14:57:14;3.47;;;3.17;;
17169;SDS011;8700;48.222;16.342;2023-08-12T15:00:36;2.80;;;2.70;;
17169;SDS011;8700;48.222;16.342;2023-08-12T15:03:57;3.83;;;2.97;;
17169;SDS011;8700;48.222;16.342;2023-08-12T15:07:18;3.55;;;3.35;;
17169;SDS011;8700;48.222;16.342;2023-08-12T15:10:41;3.88;;;3.38;;
17169;SDS011;8700;48.222;16.342;2023-08-12T15:14:03;3.50;;;3.30;;
17169;SDS011;8700;48.222;16.342;2023-08-12T15:17:24;3.47;;;3.28;;
17169;SDS011;8700;48.222;16.342;2023-08-12T15:20:45;3.15;;;2.95;;
17169;SDS011;8700;48.222;16.342;2023-08-12T15:24:06;7.80;;;3.13;;
17169;SDS011;8700;48.222;16.342;2023-08-12T15:27:29;4.05;;;3.13;;
17169;SDS011;8700;48.222;16.342;2023-08-12T15:30:50;3.22;;;3.03;;
17169;SDS011;8700;48.222;16.342;2023-08-12T15:34:11;3.35;;;3.00;;
17169;SDS011;8700;48.222;16.342;2023-08-12T15:37:33;3.53;;;3.17;;
17169;SDS011;8700;48.222;16.342;2023-08-12T15:40:54;3.63;;;3.42;;
17169;SDS011;8700;48.222;16.342;2023-08-12T15:44:16;3.20;;;3.00;;
17169;SDS011;8700;48.222;16.342;2023-08-12T15:47:38;3.85;;;3.63;;
17169;SDS011;8700;48.222;16.342;2023-08-12T15:50:59;4.10;;;3.80;;
17169;SDS011;8700;48.222;16.342;2023-08-12T15:54:20;3.85;;;3.50;;
17169;SDS011;8700;48.222;16.342;2023-08-12T15:57:41;3.50;;;3.25;;
17169;SDS011;8700;48.222;16.342;2023-08-12T16:01:05;3.58;;;3.38;;
17169;SDS011;8700;48.222;16.342;2023-08-12T16:04:26;4.00;;;3.80;;
17169;SDS011;8700;48.222;16.342;2023-08-12T16:07:48;3.85;;;3.55;;
17169;SDS011;8700;48.222;16.342;2023-08-12T16:11:09;3.70;;;3.40;;
17169;SDS011;8700;48.222;16.342;2023-08-12T16:14:30;4.43;;;4.13;;
17169;SDS011;8700;48.222;16.342;2023-08-12T16:17:52;4.30;;;4.00;;
17169;SDS011;8700;48.222;16.342;2023-08-12T16:21:14;3.75;;;3.55;;
17169;SDS011;8700;48.222;16.342;2023-08-12T16:24:35;4.03;;;3.72;;
17169;SDS011;8700;48.222;16.342;2023-08-12T16:27:56;4.28;;;4.00;;
17169;SDS011;8700;48.222;16.342;2023-08-12T16:31:17;4.80;;;4.50;;
17169;SDS011;8700;48.222;16.342;2023-08-12T16:34:40;4.63;;;4.32;;
17169;SDS011;8700;48.222;16.342;2023-08-12T16:38:01;4.63;;;4.32;;
17169;SDS011;8700;48.222;16.342;2023-08-12T16:41:23;4.47;;;4.18;;
17169;SDS011;8700;48.222;16.342;2023-08-12T16:44:44;4.68;;;4.38;;
17169;SDS011;8700;48.222;16.342;2023-08-12T16:48:05;4.55;;;4.25;;
17169;SDS011;8700;48.222;16.342;2023-08-12T16:51:28;6.47;;;4.60;;
17169;SDS011;8700;48.222;16.342;2023-08-12T16:54:49;5.18;;;4.82;;
17169;SDS011;8700;48.222;16.342;2023-08-12T16:58:10;4.90;;;4.60;;
17169;SDS011;8700;48.222;16.342;2023-08-12T17:01:32;4.55;;;4.25;;
17169;SDS011;8700;48.222;16.342;2023-08-12T17:04:53;4.93;;;4.63;;
17169;SDS011;8700;48.222;16.342;2023-08-12T17:08:15;4.80;;;4.40;;
17169;SDS011;8700;48.222;16.342;2023-08-12T17:11:36;5.80;;;4.82;;
17169;SDS011;8700;48.222;16.342;2023-08-12T17:14:58;5.15;;;4.80;;
17169;SDS011;8700;48.222;16.342;2023-08-12T17:18:19;5.05;;;4.75;;
17169;SDS011;8700;48.222;16.342;2023-08-12T17:21:40;5.55;;;5.13;;
17169;SDS011;8700;48.222;16.342;2023-08-12T17:25:03;4.85;;;4.55;;
17169;SDS011;8700;48.222;16.342;2023-08-12T17:28:25;5.97;;;5.50;;
17169;SDS011;8700;48.222;16.342;2023-08-12T17:31:46;4.65;;;4.35;;
17169;SDS011;8700;48.222;16.342;2023-08-12T17:35:07;5.03;;;4.72;;
17169;SDS011;8700;48.222;16.342;2023-08-12T17:38:29;5.30;;;4.40;;
17169;SDS011;8700;48.222;16.342;2023-08-12T17:41:52;5.50;;;5.15;;
17169;SDS011;8700;48.222;16.342;2023-08-12T17:45:13;4.15;;;3.85;;
17169;SDS011;8700;48.222;16.342;2023-08-12T17:48:35;4.70;;;4.40;;
17169;SDS011;8700;48.222;16.342;2023-08-12T17:51:56;4.80;;;4.43;;
17169;SDS011;8700;48.222;16.342;2023-08-12T17:55:17;5.07;;;4.63;;
17169;SDS011;8700;48.222;16.342;2023-08-12T17:58:40;5.18;;;4.78;;
17169;SDS011;8700;48.222;16.342;2023-08-12T18:02:02;5.90;;;5.40;;
17169;SDS011;8700;48.222;16.342;2023-08-12T18:05:23;5.53;;;5.05;;
17169;SDS011;8700;48.222;16.342;2023-08-12T18:08:44;6.20;;;5.07;;
17169;SDS011;8700;48.222;16.342;2023-08-12T18:12:07;5.07;;;4.78;;
17169;SDS011;8700;48.222;16.342;2023-08-12T18:15:29;4.72;;;4.43;;
17169;SDS011;8700;48.222;16.342;2023-08-12T18:18:51;5.47;;;4.72;;
17169;SDS011;8700;48.222;16.342;2023-08-12T18:22:12;5.45;;;4.95;;
17169;SDS011;8700;48.222;16.342;2023-08-12T18:25:33;5.50;;;5.10;;
17169;SDS011;8700;48.222;16.342;2023-08-12T18:28:55;4.88;;;4.57;;
17169;SDS011;8700;48.222;16.342;2023-08-12T18:32:17;5.32;;;4.93;;
17169;SDS011;8700;48.222;16.342;2023-08-12T18:35:39;5.63;;;5.22;;
17169;SDS011;8700;48.222;16.342;2023-08-12T18:39:00;5.68;;;5.18;;
17169;SDS011;8700;48.222;16.342;2023-08-12T18:42:21;5.85;;;5.45;;
17169;SDS011;8700;48.222;16.342;2023-08-12T18:45:42;5.53;;;5.03;;
17169;SDS011;8700;48.222;16.342;2023-08-12T18:49:05;6.13;;;5.63;;
17169;SDS011;8700;48.222;16.342;2023-08-12T18:52:26;5.63;;;5.22;;
17169;SDS011;8700;48.222;16.342;2023-08-12T18:55:47;5.50;;;5.10;;
17169;SDS011;8700;48.222;16.342;2023-08-12T18:59:08;7.25;;;6.65;;
17169;SDS011;8700;48.222;16.342;2023-08-12T19:02:30;5.85;;;5.38;;
17169;SDS011;8700;48.222;16.342;2023-08-12T19:05:57;5.97;;;5.57;;
17169;SDS011;8700;48.222;16.342;2023-08-12T19:09:18;6.07;;;5.57;;
17169;SDS011;8700;48.222;16.342;2023-08-12T19:12:40;6.40;;;5.80;;
17169;SDS011;8700;48.222;16.342;2023-08-12T19:16:01;6.55;;;6.13;;
17169;SDS011;8700;48.222;16.342;2023-08-12T19:19:22;7.35;;;6.75;;
17169;SDS011;8700;48.222;16.342;2023-08-12T19:22:45;6.53;;;5.93;;
17169;SDS011;8700;48.222;16.342;2023-08-12T19:26:06;6.93;;;6.32;;
17169;SDS011;8700;48.222;16.342;2023-08-12T19:29:28;7.13;;;6.53;;
17169;SDS011;8700;48.222;16.342;2023-08-12T19:32:50;6.18;;;5.75;;
17169;SDS011;8700;48.222;16.342;2023-08-12T19:36:12;7.07;;;6.47;;
17169;SDS011;8700;48.222;16.342;2023-08-12T19:39:36;6.35;;;5.95;;
17169;SDS011;8700;48.222;16.342;2023-08-12T19:42:57;7.65;;;7.00;;
17169;SDS011;8700;48.222;16.342;2023-08-12T19:46:18;8.75;;;7.85;;
17169;SDS011;8700;48.222;16.342;2023-08-12T19:49:40;6.90;;;6.30;;
17169;SDS011;8700;48.222;16.342;2023-08-12T19:53:01;7.18;;;6.60;;
17169;SDS011;8700;48.222;16.342;2023-08-12T19:56:24;6.07;;;5.57;;
17169;SDS011;8700;48.222;16.342;2023-08-12T19:59:45;5.78;;;5.38;;
17169;SDS011;8700;48.222;16.342;2023-08-12T20:03:06;5.70;;;5.30;;
17169;SDS011;8700;48.222;16.342;2023-08-12T20:06:28;6.32;;;5.72;;
17169;SDS011;8700;48.222;16.342;2023-08-12T20:09:50;6.35;;;5.85;;